createdAt,value
2022-08-21T00:02:22.822Z,63.71
2022-08-21T00:04:57.394Z,63.79
2022-08-21T00:07:26.062Z,64.02
2022-08-21T00:09:54.308Z,64.33
2022-08-21T00:12:22.552Z,64.53
2022-08-21T00:14:50.366Z,64.43
2022-08-21T00:17:23.577Z,64.49
2022-08-21T00:19:51.342Z,64.60
2022-08-21T00:22:20.609Z,64.95
2022-08-21T00:24:48.593Z,65.08
2022-08-21T00:27:16.377Z,65.09
2022-08-21T00:29:44.183Z,64.94
2022-08-21T00:32:12.011Z,64.94
2022-08-21T00:34:39.811Z,65.04
2022-08-21T00:37:09.073Z,65.28
2022-08-21T00:39:37.015Z,65.44
2022-08-21T00:42:05.032Z,65.57
2022-08-21T00:44:33.586Z,65.54
2022-08-21T00:47:01.417Z,65.47
2022-08-21T00:49:29.194Z,65.36
2022-08-21T00:51:59.821Z,64.90
2022-08-21T00:54:30.956Z,64.74
2022-08-21T00:57:04.756Z,65.37
2022-08-21T00:59:36.182Z,65.55
2022-08-21T01:02:06.504Z,65.59
2022-08-21T01:04:35.177Z,66.13
2022-08-21T01:07:04.185Z,66.63
2022-08-21T01:09:32.634Z,66.77
2022-08-21T01:12:00.571Z,66.75
2022-08-21T01:14:29.647Z,66.55
2022-08-21T01:16:59.553Z,66.27
2022-08-21T01:19:27.921Z,66.49
2022-08-21T01:21:55.977Z,66.38
2022-08-21T01:24:23.965Z,66.59
2022-08-21T01:26:52.447Z,66.83
2022-08-21T01:29:39.749Z,66.75
2022-08-21T01:32:13.719Z,66.68
2022-08-21T01:34:45.240Z,66.83
2022-08-21T01:37:14.189Z,67.07
2022-08-21T01:39:43.598Z,66.66
2022-08-21T01:42:12.039Z,67.14
2022-08-21T01:44:40.292Z,67.40
2022-08-21T01:47:10.137Z,67.28
2022-08-21T01:49:38.740Z,67.22
2022-08-21T01:52:07.130Z,67.25
2022-08-21T01:54:37.929Z,67.24
2022-08-21T01:57:05.987Z,67.07
2022-08-21T01:59:34.412Z,66.82
2022-08-21T02:02:02.200Z,67.07
2022-08-21T02:04:29.994Z,67.16
2022-08-21T02:06:57.785Z,67.53
2022-08-21T02:09:25.528Z,67.53
2022-08-21T02:11:53.497Z,67.14
2022-08-21T02:14:32.080Z,67.11
2022-08-21T02:17:08.693Z,66.92
2022-08-21T02:19:40.147Z,66.96
2022-08-21T02:22:11.620Z,67.12
2022-08-21T02:24:54.289Z,67.43
2022-08-21T02:27:26.510Z,67.36
2022-08-21T02:29:58.077Z,67.20
2022-08-21T02:32:26.758Z,67.07
2022-08-21T02:34:54.995Z,67.19
2022-08-21T02:37:24.049Z,67.10
2022-08-21T02:39:52.294Z,67.28
2022-08-21T02:42:21.450Z,67.41
2022-08-21T02:44:49.249Z,67.05
2022-08-21T02:47:17.196Z,66.97
2022-08-21T02:49:45.059Z,66.90
2022-08-21T02:52:13.037Z,66.97
2022-08-21T02:54:41.410Z,67.01
2022-08-21T02:57:09.430Z,66.92
2022-08-21T02:59:37.546Z,66.97
2022-08-21T03:02:05.369Z,66.87
2022-08-21T03:04:33.577Z,67.43
2022-08-21T03:07:01.530Z,67.75
2022-08-21T03:09:29.589Z,68.31
2022-08-21T03:11:58.715Z,67.34
2022-08-21T03:14:26.608Z,67.78
2022-08-21T03:16:54.792Z,67.92
2022-08-21T03:19:22.526Z,67.69
2022-08-21T03:21:50.302Z,69.21
2022-08-21T03:24:19.235Z,69.49
2022-08-21T03:26:49.652Z,69.74
2022-08-21T03:29:17.843Z,69.23
2022-08-21T03:31:45.679Z,69.54
2022-08-21T03:34:13.482Z,69.75
2022-08-21T03:36:41.397Z,69.59
2022-08-21T03:39:09.212Z,69.61
2022-08-21T03:41:37.893Z,69.20
2022-08-21T03:44:06.467Z,68.94
2022-08-21T03:46:35.139Z,68.51
2022-08-21T03:49:03.396Z,67.98
2022-08-21T03:51:33.326Z,68.43
2022-08-21T03:54:01.046Z,68.16
2022-08-21T03:56:29.148Z,68.15
2022-08-21T03:58:57.463Z,68.04
2022-08-21T04:01:25.523Z,68.26
2022-08-21T04:03:53.390Z,68.35
2022-08-21T04:06:21.213Z,68.22
2022-08-21T04:08:49.514Z,68.19
2022-08-21T04:11:17.812Z,68.15
2022-08-21T04:13:46.152Z,67.96
2022-08-21T04:16:14.895Z,67.76
2022-08-21T04:18:43.716Z,67.31
2022-08-21T04:21:12.698Z,67.66
2022-08-21T04:23:41.560Z,67.74
2022-08-21T04:26:10.002Z,67.75
2022-08-21T04:28:37.826Z,67.48
2022-08-21T04:31:05.609Z,67.53
2022-08-21T04:33:33.396Z,67.38
2022-08-21T04:36:02.617Z,67.31
2022-08-21T04:38:37.532Z,67.17
2022-08-21T04:41:07.564Z,67.07
2022-08-21T04:43:35.910Z,66.08
2022-08-21T04:46:04.565Z,65.71
2022-08-21T04:48:36.816Z,65.15
2022-08-21T04:51:14.764Z,64.74
2022-08-21T04:53:50.427Z,64.71
2022-08-21T04:56:27.793Z,64.20
2022-08-21T04:58:59.310Z,64.03
2022-08-21T05:01:29.163Z,63.29
2022-08-21T05:04:00.065Z,63.55
2022-08-21T05:06:29.718Z,63.63
2022-08-21T05:09:02.135Z,63.47
2022-08-21T05:11:33.883Z,63.30
2022-08-21T05:14:01.685Z,62.92
2022-08-21T05:16:37.420Z,62.66
2022-08-21T05:19:07.370Z,62.37
2022-08-21T05:21:36.245Z,62.13
2022-08-21T05:24:04.372Z,62.36
2022-08-21T05:26:32.343Z,62.58
2022-08-21T05:29:01.082Z,62.78
2022-08-21T05:31:30.213Z,62.98
2022-08-21T05:33:58.053Z,62.80
2022-08-21T05:36:25.961Z,62.74
2022-08-21T05:38:54.715Z,62.54
2022-08-21T05:41:22.911Z,62.52
2022-08-21T05:43:50.852Z,62.20
2022-08-21T05:46:18.673Z,62.47
2022-08-21T05:48:46.520Z,61.89
2022-08-21T05:51:16.247Z,61.73
2022-08-21T05:53:44.879Z,61.79
2022-08-21T05:56:14.004Z,61.02
2022-08-21T05:58:42.259Z,60.95
2022-08-21T06:01:10.871Z,60.64
2022-08-21T06:03:40.546Z,60.41
2022-08-21T06:06:08.527Z,60.93
2022-08-21T06:08:36.799Z,60.84
2022-08-21T06:11:05.571Z,60.32
2022-08-21T06:13:33.787Z,58.92
2022-08-21T06:16:15.760Z,58.61
2022-08-21T06:18:46.060Z,59.70
2022-08-21T06:21:14.582Z,61.46
2022-08-21T06:23:43.332Z,63.13
2022-08-21T06:26:14.431Z,62.83
2022-08-21T06:28:43.173Z,62.25
2022-08-21T06:31:16.045Z,61.85
2022-08-21T06:33:44.354Z,61.33
2022-08-21T06:36:12.270Z,60.96
2022-08-21T06:38:40.402Z,60.78
2022-08-21T06:41:08.626Z,60.65
2022-08-21T06:43:39.702Z,60.69
2022-08-21T06:46:08.785Z,60.64
2022-08-21T06:48:36.877Z,60.30
2022-08-21T06:51:05.622Z,61.35
2022-08-21T06:53:34.046Z,62.12
2022-08-21T06:56:02.092Z,62.75
2022-08-21T06:58:32.456Z,61.53
2022-08-21T07:01:01.492Z,60.52
2022-08-21T07:03:31.439Z,59.72
2022-08-21T07:05:59.386Z,59.78
2022-08-21T07:08:29.526Z,59.18
2022-08-21T07:10:59.766Z,59.49
2022-08-21T07:13:28.382Z,59.20
2022-08-21T07:16:00.262Z,60.36
2022-08-21T07:18:32.393Z,59.28
2022-08-21T07:21:03.042Z,59.33
2022-08-21T07:23:38.938Z,59.09
2022-08-21T07:26:07.587Z,58.85
2022-08-21T07:28:35.553Z,59.21
2022-08-21T07:31:04.361Z,58.26
2022-08-21T07:33:33.791Z,57.89
2022-08-21T07:36:02.308Z,58.29
2022-08-21T07:38:30.369Z,57.51
2022-08-21T07:41:00.057Z,57.94
2022-08-21T07:43:29.437Z,57.68
2022-08-21T07:45:58.124Z,55.82
2022-08-21T07:48:25.953Z,55.07
2022-08-21T07:50:53.737Z,55.14
2022-08-21T07:53:21.496Z,54.81
2022-08-21T07:55:50.451Z,55.12
2022-08-21T07:58:18.226Z,54.20
2022-08-21T08:00:46.108Z,53.44
2022-08-21T08:03:13.961Z,52.03
2022-08-21T08:05:48.915Z,53.23
2022-08-21T08:08:17.908Z,53.37
2022-08-21T08:10:46.336Z,53.02
2022-08-21T08:13:14.275Z,53.75
2022-08-21T08:15:42.312Z,52.29
2022-08-21T08:18:10.735Z,52.54
2022-08-21T08:20:38.559Z,52.40
2022-08-21T08:23:06.486Z,51.70
2022-08-21T08:25:36.609Z,52.05
2022-08-21T08:28:16.266Z,51.86
2022-08-21T08:30:47.603Z,51.87
2022-08-21T08:33:16.386Z,51.18
2022-08-21T08:35:45.481Z,50.93
2022-08-21T08:38:13.434Z,51.40
2022-08-21T08:40:54.117Z,49.83
2022-08-21T08:43:23.522Z,50.42
2022-08-21T08:45:55.504Z,50.41
2022-08-21T08:48:47.190Z,50.59
2022-08-21T08:51:55.912Z,50.56
2022-08-21T08:54:33.982Z,48.09
2022-08-21T08:57:04.800Z,44.56
2022-08-21T08:59:41.038Z,41.14
2022-08-21T09:02:15.643Z,41.11
2022-08-21T09:04:45.413Z,36.68
2022-08-21T09:07:48.328Z,35.16
2022-08-21T09:10:19.208Z,33.13
2022-08-21T09:13:06.484Z,34.74
2022-08-21T09:15:39.942Z,27.84
2022-08-21T09:18:22.647Z,30.36
2022-08-21T09:21:38.520Z,26.69
2022-08-21T09:24:25.379Z,24.61
2022-08-21T09:27:13.336Z,27.65
2022-08-21T09:29:49.056Z,24.75
2022-08-21T09:32:24.355Z,23.92
2022-08-21T09:35:10.127Z,21.54
2022-08-21T09:37:50.158Z,21.54
2022-08-21T09:40:42.693Z,20.83
2022-08-21T09:43:10.437Z,21.62
2022-08-21T09:45:39.680Z,22.20
2022-08-21T09:48:18.712Z,20.77
2022-08-21T09:50:48.535Z,20.49
2022-08-21T09:53:25.920Z,20.34
2022-08-21T09:56:14.570Z,20.65
2022-08-21T09:58:50.439Z,19.59
2022-08-21T10:01:24.941Z,18.45
2022-08-21T10:04:06.370Z,19.93
2022-08-21T10:06:36.002Z,18.50
2022-08-21T10:09:20.053Z,17.96
2022-08-21T10:12:02.314Z,18.50
2022-08-21T10:14:48.924Z,18.40
2022-08-21T10:17:27.379Z,18.65
2022-08-21T10:20:05.924Z,19.46
2022-08-21T10:22:36.020Z,18.34
2022-08-21T10:25:18.599Z,19.44
2022-08-21T10:28:13.938Z,20.74
2022-08-21T10:30:49.199Z,21.91
2022-08-21T10:33:36.620Z,22.60
2022-08-21T10:36:15.978Z,24.43
2022-08-21T10:39:12.052Z,25.56
2022-08-21T10:42:00.962Z,26.65
2022-08-21T10:44:40.860Z,26.74
2022-08-21T10:47:27.088Z,26.34
2022-08-21T10:50:00.803Z,26.18
2022-08-21T10:52:31.590Z,24.80
2022-08-21T10:55:11.204Z,23.66
2022-08-21T10:57:51.196Z,23.54
2022-08-21T11:00:24.426Z,24.86
2022-08-21T11:03:08.580Z,24.70
2022-08-21T11:05:59.297Z,24.61
2022-08-21T11:08:39.367Z,25.01
2022-08-21T11:11:25.313Z,26.30
2022-08-21T11:14:49.730Z,27.25
2022-08-21T11:17:24.455Z,28.07
2022-08-21T11:20:05.918Z,28.46
2022-08-21T11:23:03.739Z,28.67
2022-08-21T11:25:38.384Z,28.73
2022-08-21T11:28:14.498Z,28.77
2022-08-21T11:30:58.111Z,28.76
2022-08-21T11:34:04.812Z,28.47
2022-08-21T11:37:01.310Z,28.32
2022-08-21T11:39:57.150Z,28.91
2022-08-21T11:49:34.390Z,29.98
2022-08-21T11:52:20.338Z,30.73
2022-08-21T11:54:56.021Z,30.55
2022-08-21T11:57:44.928Z,31.14
2022-08-21T12:00:42.548Z,31.76
2022-08-21T12:03:15.740Z,33.03
2022-08-21T12:05:45.920Z,33.54
2022-08-21T12:08:16.658Z,32.89
2022-08-21T12:11:01.930Z,33.48
2022-08-21T12:13:40.488Z,33.13
2022-08-21T12:16:13.600Z,33.46
2022-08-21T12:18:42.872Z,33.63
2022-08-21T12:21:28.633Z,34.51
2022-08-21T12:24:02.707Z,34.54
2022-08-21T12:26:37.040Z,35.24
2022-08-21T12:29:38.464Z,35.96
2022-08-21T12:32:12.447Z,35.90
2022-08-21T12:35:04.043Z,36.62
2022-08-21T12:37:42.420Z,37.01
2022-08-21T12:40:25.646Z,38.61
2022-08-21T12:42:58.828Z,39.08
2022-08-21T12:45:43.087Z,38.80
2022-08-21T12:48:19.935Z,38.30
2022-08-21T12:50:53.507Z,38.31
2022-08-21T12:53:35.186Z,38.42
2022-08-21T12:56:04.754Z,38.91
2022-08-21T12:58:32.780Z,38.77
2022-08-21T13:01:03.138Z,39.02
2022-08-21T13:03:32.254Z,39.44
2022-08-21T13:06:00.351Z,38.85
2022-08-21T13:08:28.302Z,39.58
2022-08-21T13:11:00.625Z,39.03
2022-08-21T13:13:47.167Z,38.69
2022-08-21T13:16:32.000Z,39.36
2022-08-21T13:19:13.215Z,39.96
2022-08-21T13:21:43.924Z,39.81
2022-08-21T13:24:45.918Z,39.66
2022-08-21T13:27:34.939Z,41.25
2022-08-21T13:30:11.127Z,40.39
2022-08-21T13:32:46.329Z,41.94
2022-08-21T13:35:21.132Z,41.39
2022-08-21T13:37:52.073Z,41.95
2022-08-21T13:40:25.990Z,40.76
2022-08-21T13:42:53.866Z,41.48
2022-08-21T13:45:28.599Z,41.42
2022-08-21T13:47:56.519Z,41.63
2022-08-21T13:50:25.339Z,40.86
2022-08-21T13:52:58.918Z,41.14
2022-08-21T13:55:36.408Z,40.85
2022-08-21T13:58:05.630Z,40.74
2022-08-21T14:00:36.537Z,42.19
2022-08-21T14:03:10.383Z,42.86
2022-08-21T14:05:45.512Z,42.60
2022-08-21T14:08:30.029Z,42.78
2022-08-21T14:10:58.866Z,43.60
2022-08-21T14:13:39.011Z,44.05
2022-08-21T14:16:16.494Z,42.29
2022-08-21T14:19:08.737Z,43.20
2022-08-21T14:21:40.773Z,43.46
2022-08-21T14:24:12.919Z,44.39
2022-08-21T14:26:56.084Z,45.17
2022-08-21T14:29:27.281Z,45.77
2022-08-21T14:32:01.468Z,45.04
2022-08-21T14:34:35.882Z,44.93
2022-08-21T14:37:03.970Z,45.61
2022-08-21T14:39:31.711Z,45.48
2022-08-21T14:42:01.868Z,45.65
2022-08-21T14:44:30.070Z,45.81
2022-08-21T14:46:57.980Z,45.96
2022-08-21T14:49:28.372Z,46.61
2022-08-21T14:51:58.853Z,46.60
2022-08-21T14:54:31.720Z,48.15
2022-08-21T14:57:05.722Z,48.61
2022-08-21T14:59:34.580Z,48.98
2022-08-21T15:02:05.245Z,49.62
2022-08-21T15:04:34.561Z,49.77
2022-08-21T15:07:02.989Z,50.01
2022-08-21T15:09:30.911Z,49.88
2022-08-21T15:12:00.669Z,49.92
2022-08-21T15:14:30.844Z,49.46
2022-08-21T15:16:58.983Z,49.08
2022-08-21T15:19:27.319Z,49.37
2022-08-21T15:21:55.136Z,49.46
2022-08-21T15:24:23.227Z,49.54
2022-08-21T15:26:52.531Z,48.24
2022-08-21T15:29:22.849Z,48.04
2022-08-21T15:31:59.618Z,49.12
2022-08-21T15:34:29.915Z,49.39
2022-08-21T15:36:58.835Z,49.76
2022-08-21T15:39:31.345Z,49.94
2022-08-21T15:42:10.362Z,49.81
2022-08-21T15:44:40.182Z,49.33
2022-08-21T15:47:13.978Z,49.70
2022-08-21T15:49:45.987Z,49.71
2022-08-21T15:52:14.927Z,50.87
2022-08-21T15:54:42.792Z,51.12
2022-08-21T15:57:13.635Z,50.31
2022-08-21T15:59:45.180Z,50.72
2022-08-21T16:02:25.416Z,51.29
2022-08-21T16:04:53.628Z,52.27
2022-08-21T16:07:21.574Z,52.28
2022-08-21T16:09:49.794Z,52.30
2022-08-21T16:12:45.096Z,52.73
2022-08-21T16:15:20.605Z,52.18
2022-08-21T16:17:50.562Z,51.75
2022-08-21T16:20:25.078Z,51.67
2022-08-21T16:22:56.943Z,51.34
2022-08-21T16:25:25.603Z,52.07
2022-08-21T16:27:59.567Z,51.77
2022-08-21T16:30:28.708Z,52.71
2022-08-21T16:32:56.884Z,53.46
2022-08-21T16:35:25.217Z,53.36
2022-08-21T16:37:53.616Z,53.28
2022-08-21T16:40:27.304Z,53.45
2022-08-21T16:42:56.310Z,53.12
2022-08-21T16:45:24.241Z,54.38
2022-08-21T16:47:51.987Z,54.81
2022-08-21T16:50:23.854Z,54.90
2022-08-21T16:52:52.324Z,55.38
2022-08-21T16:55:20.662Z,55.12
2022-08-21T16:57:48.717Z,55.84
2022-08-21T17:00:16.770Z,56.95
2022-08-21T17:02:47.903Z,56.40
2022-08-21T17:05:16.478Z,57.49
2022-08-21T17:07:44.451Z,57.29
2022-08-21T17:10:14.735Z,57.84
2022-08-21T17:12:43.907Z,58.32
2022-08-21T17:15:23.958Z,58.88
2022-08-21T17:17:52.239Z,59.55
2022-08-21T17:20:20.987Z,58.55
2022-08-21T17:22:49.112Z,58.81
2022-08-21T17:25:17.295Z,58.35
2022-08-21T17:27:47.275Z,59.69
2022-08-21T17:30:16.465Z,60.77
2022-08-21T17:32:46.164Z,62.39
2022-08-21T17:35:14.333Z,62.53
2022-08-21T17:37:42.497Z,60.79
2022-08-21T17:40:14.347Z,59.38
2022-08-21T17:42:43.960Z,58.57
2022-08-21T17:45:14.560Z,58.21
2022-08-21T17:47:42.857Z,58.24
2022-08-21T17:50:12.725Z,58.72
2022-08-21T17:52:40.616Z,61.57
2022-08-21T17:55:08.770Z,62.53
2022-08-21T17:57:37.050Z,61.95
2022-08-21T18:00:07.697Z,61.26
2022-08-21T18:02:40.969Z,60.89
2022-08-21T18:05:11.760Z,58.33
2022-08-21T18:07:41.078Z,58.39
2022-08-21T18:10:11.583Z,58.88
2022-08-21T18:12:41.860Z,59.60
2022-08-21T18:15:16.242Z,61.78
2022-08-21T18:17:49.570Z,62.65
2022-08-21T18:20:20.159Z,62.46
2022-08-21T18:22:48.048Z,61.63
2022-08-21T18:25:17.009Z,61.08
2022-08-21T18:27:46.329Z,60.69
2022-08-21T18:30:20.120Z,59.33
2022-08-21T18:32:48.340Z,58.89
2022-08-21T18:35:16.965Z,59.69
2022-08-21T18:37:45.104Z,61.52
2022-08-21T18:40:15.676Z,63.10
2022-08-21T18:42:55.276Z,62.94
2022-08-21T18:45:24.639Z,62.65
2022-08-21T18:47:54.481Z,61.83
2022-08-21T18:50:26.462Z,61.47
2022-08-21T18:52:54.952Z,61.28
2022-08-21T18:55:24.588Z,60.72
2022-08-21T18:57:54.763Z,60.51
2022-08-21T19:00:27.395Z,61.24
2022-08-21T19:02:55.423Z,60.82
2022-08-21T19:05:24.316Z,61.25
2022-08-21T19:07:53.732Z,61.18
2022-08-21T19:10:27.796Z,60.30
2022-08-21T19:12:59.619Z,60.71
2022-08-21T19:15:28.559Z,60.06
2022-08-21T19:17:59.621Z,60.55
2022-08-21T19:20:30.374Z,60.35
2022-08-21T19:22:58.431Z,60.58
2022-08-21T19:25:33.568Z,60.91
2022-08-21T19:28:11.298Z,61.15
2022-08-21T19:30:45.992Z,61.26
2022-08-21T19:33:34.910Z,61.26
2022-08-21T19:36:05.152Z,61.08
2022-08-21T19:38:33.309Z,61.36
2022-08-21T19:41:01.804Z,61.44
2022-08-21T19:43:32.244Z,61.44
2022-08-21T19:46:03.153Z,61.38
2022-08-21T19:48:31.196Z,61.44
2022-08-21T19:50:59.032Z,61.41
2022-08-21T19:53:27.071Z,61.83
2022-08-21T19:55:55.213Z,61.90
2022-08-21T19:58:38.495Z,61.88
2022-08-21T20:01:11.521Z,62.10
2022-08-21T20:03:53.729Z,62.32
2022-08-21T20:06:24.064Z,62.10
2022-08-21T20:08:54.780Z,62.25
2022-08-21T20:11:47.227Z,61.46
2022-08-21T20:14:18.790Z,62.01
2022-08-21T20:16:48.501Z,62.51
2022-08-21T20:19:22.278Z,62.78
2022-08-21T20:21:50.128Z,63.00
2022-08-21T20:24:17.981Z,63.31
2022-08-21T20:29:39.157Z,63.38
2022-08-21T20:32:24.495Z,63.41
2022-08-21T20:37:40.708Z,63.20
2022-08-21T20:40:11.535Z,63.13
2022-08-21T20:42:44.831Z,63.47
2022-08-21T20:45:34.529Z,63.33
2022-08-21T20:48:11.660Z,63.64
2022-08-21T20:50:44.232Z,63.63
2022-08-21T20:53:53.970Z,63.98
2022-08-21T20:56:38.313Z,64.03
2022-08-21T20:59:34.267Z,64.09
2022-08-21T21:02:19.660Z,64.12
2022-08-21T21:05:12.315Z,64.55
2022-08-21T21:07:55.291Z,64.91
2022-08-21T21:10:53.460Z,64.35
2022-08-21T21:13:24.928Z,64.21
2022-08-21T21:15:56.705Z,64.42
2022-08-21T21:18:44.444Z,64.64
2022-08-21T21:21:19.418Z,64.81
2022-08-21T21:24:07.497Z,64.92
2022-08-21T21:26:48.621Z,64.87
2022-08-21T21:29:29.811Z,64.84
2022-08-21T21:31:57.950Z,64.83
2022-08-21T21:34:28.091Z,64.96
2022-08-21T21:37:08.972Z,65.19
2022-08-21T21:39:57.337Z,65.30
2022-08-21T21:42:49.330Z,65.45
2022-08-21T21:45:25.969Z,65.38
2022-08-21T21:48:21.497Z,65.38
2022-08-21T21:51:02.407Z,65.58
2022-08-21T21:53:55.471Z,65.37
2022-08-21T21:56:49.387Z,65.57
2022-08-21T21:59:47.074Z,65.84
2022-08-21T22:02:33.277Z,65.65
2022-08-21T22:05:19.634Z,65.63
2022-08-21T22:07:58.007Z,65.59
2022-08-21T22:10:32.404Z,65.64
2022-08-21T22:13:10.657Z,65.88
2022-08-21T22:15:41.359Z,65.92
2022-08-21T22:18:11.688Z,65.96
2022-08-21T22:20:49.102Z,66.17
2022-08-21T22:23:20.343Z,66.07
2022-08-21T22:25:52.301Z,66.38
2022-08-21T22:28:25.488Z,66.16
2022-08-21T22:30:57.224Z,66.17
2022-08-21T22:33:28.254Z,66.09
2022-08-21T22:35:58.855Z,66.50
2022-08-21T22:38:26.645Z,66.80
2022-08-21T22:41:21.431Z,66.75
2022-08-21T22:44:01.597Z,66.81
2022-08-21T22:46:51.999Z,66.80
2022-08-21T22:49:34.377Z,66.51
2022-08-21T22:52:12.416Z,66.69
2022-08-21T22:54:42.881Z,66.77
2022-08-21T22:57:26.765Z,66.86
2022-08-21T23:00:01.364Z,66.99
2022-08-21T23:02:38.048Z,67.16
2022-08-21T23:05:19.278Z,66.99
2022-08-21T23:07:49.832Z,67.08
2022-08-21T23:10:20.190Z,67.48
2022-08-21T23:12:50.872Z,67.23
2022-08-21T23:15:22.094Z,67.36
2022-08-21T23:17:58.808Z,67.28
2022-08-21T23:20:45.545Z,67.54
2022-08-21T23:23:27.137Z,67.63
2022-08-21T23:26:17.644Z,67.55
2022-08-21T23:29:25.079Z,66.89
2022-08-21T23:32:08.234Z,67.93
2022-08-21T23:34:46.428Z,68.38
2022-08-21T23:37:49.112Z,68.15
2022-08-21T23:40:51.076Z,68.31
2022-08-21T23:43:41.724Z,68.51
2022-08-21T23:46:33.810Z,68.61
2022-08-21T23:49:26.401Z,68.47
2022-08-21T23:52:14.206Z,68.57
2022-08-21T23:55:01.775Z,68.37
2022-08-21T23:57:51.211Z,68.66
